createdAt,value
2023-02-13T00:00:25.472Z,92.81
2023-02-13T00:02:47.152Z,93.21
2023-02-13T00:05:08.658Z,93.29
2023-02-13T00:07:30.084Z,93.68
2023-02-13T00:09:51.529Z,93.67
2023-02-13T00:12:12.951Z,93.32
2023-02-13T00:14:39.381Z,93.38
2023-02-13T00:17:00.874Z,93.26
2023-02-13T00:19:22.370Z,93.43
2023-02-13T00:21:43.852Z,92.68
2023-02-13T00:24:05.773Z,91.42
2023-02-13T00:26:27.253Z,93.01
2023-02-13T00:28:48.895Z,93.69
2023-02-13T00:31:13.083Z,93.65
2023-02-13T00:33:34.928Z,93.41
2023-02-13T00:36:06.556Z,93.98
2023-02-13T00:38:30.083Z,92.80
2023-02-13T00:40:51.524Z,92.26
2023-02-13T00:43:12.927Z,92.61
2023-02-13T00:45:34.362Z,93.01
2023-02-13T00:47:55.861Z,92.79
2023-02-13T00:50:17.446Z,92.63
2023-02-13T00:52:39.229Z,92.82
2023-02-13T00:55:00.727Z,92.95
2023-02-13T00:57:22.255Z,92.96
2023-02-13T00:59:43.712Z,92.98
2023-02-13T01:02:05.234Z,93.32
2023-02-13T01:04:26.699Z,93.19
2023-02-13T01:06:48.130Z,94.03
2023-02-13T01:09:09.639Z,94.02
2023-02-13T01:11:31.159Z,93.76
2023-02-13T01:13:52.638Z,93.78
2023-02-13T01:16:16.034Z,93.44
2023-02-13T01:18:37.589Z,93.25
2023-02-13T01:21:02.880Z,93.60
2023-02-13T01:23:24.522Z,93.08
2023-02-13T01:25:46.002Z,93.32
2023-02-13T01:28:07.541Z,92.99
2023-02-13T01:30:28.995Z,92.90
2023-02-13T01:32:50.466Z,92.70
2023-02-13T01:35:13.353Z,92.58
2023-02-13T01:37:34.826Z,92.75
2023-02-13T01:39:56.439Z,92.37
2023-02-13T01:42:25.124Z,92.22
2023-02-13T01:45:09.553Z,92.29
2023-02-13T01:47:47.405Z,92.34
2023-02-13T01:50:28.784Z,92.48
2023-02-13T01:53:05.053Z,93.07
2023-02-13T01:55:27.965Z,93.36
2023-02-13T01:57:57.623Z,93.17
2023-02-13T02:00:19.587Z,93.10
2023-02-13T02:02:46.814Z,92.92
2023-02-13T02:05:09.050Z,93.24
2023-02-13T02:07:31.794Z,92.92
2023-02-13T02:09:58.652Z,93.84
2023-02-13T02:12:42.237Z,93.48
2023-02-13T02:15:06.267Z,93.38
2023-02-13T02:17:28.130Z,93.15
2023-02-13T02:20:12.752Z,93.09
2023-02-13T02:22:58.256Z,93.66
2023-02-13T02:25:43.912Z,94.76
2023-02-13T02:28:29.970Z,94.98
2023-02-13T02:31:38.789Z,94.89
2023-02-13T02:34:19.120Z,94.58
2023-02-13T02:36:52.427Z,95.03
2023-02-13T02:39:49.386Z,95.65
2023-02-13T02:42:25.724Z,95.27
2023-02-13T02:45:13.044Z,94.19
2023-02-13T02:48:08.425Z,94.07
2023-02-13T02:50:46.368Z,94.20
2023-02-13T02:53:10.800Z,93.71
2023-02-13T02:55:41.491Z,93.75
2023-02-13T02:58:36.752Z,94.13
2023-02-13T03:01:19.339Z,94.16
2023-02-13T03:03:59.522Z,93.91
2023-02-13T03:06:29.996Z,93.82
2023-02-13T03:09:16.233Z,94.00
2023-02-13T03:11:57.770Z,93.05
2023-02-13T03:14:20.889Z,93.17
2023-02-13T03:17:01.231Z,92.84
2023-02-13T03:20:02.267Z,93.17
2023-02-13T03:22:55.990Z,93.09
2023-02-13T03:25:37.412Z,92.91
2023-02-13T03:28:20.038Z,92.96
2023-02-13T03:30:51.526Z,92.94
2023-02-13T03:33:18.912Z,92.95
2023-02-13T03:36:26.456Z,93.06
2023-02-13T03:38:54.384Z,92.92
2023-02-13T03:41:27.795Z,93.41
2023-02-13T03:43:58.265Z,93.44
2023-02-13T03:46:20.679Z,93.20
2023-02-13T03:49:02.073Z,93.07
2023-02-13T03:51:36.605Z,92.99
2023-02-13T03:54:02.397Z,92.73
2023-02-13T03:56:44.968Z,92.56
2023-02-13T03:59:16.321Z,92.63
2023-02-13T04:01:39.377Z,92.53
2023-02-13T04:04:09.865Z,92.99
2023-02-13T04:06:43.960Z,92.70
2023-02-13T04:09:05.432Z,92.97
2023-02-13T04:11:45.532Z,93.03
2023-02-13T04:14:22.766Z,94.20
2023-02-13T04:16:49.446Z,94.11
2023-02-13T04:19:11.896Z,93.80
2023-02-13T04:21:38.685Z,93.54
2023-02-13T04:24:00.128Z,94.10
2023-02-13T04:26:23.543Z,94.01
2023-02-13T04:28:45.344Z,93.30
2023-02-13T04:31:06.921Z,93.90
2023-02-13T04:33:28.486Z,93.57
2023-02-13T04:35:49.920Z,93.31
2023-02-13T04:38:11.419Z,92.67
2023-02-13T04:40:33.173Z,92.87
2023-02-13T04:42:54.732Z,92.79
2023-02-13T04:45:17.485Z,92.48
2023-02-13T04:47:38.955Z,92.40
2023-02-13T04:50:00.434Z,92.42
2023-02-13T04:52:21.944Z,92.52
2023-02-13T04:54:43.380Z,92.61
2023-02-13T04:57:04.859Z,92.46
2023-02-13T04:59:26.365Z,92.33
2023-02-13T05:01:47.856Z,91.93
2023-02-13T05:04:11.213Z,91.99
2023-02-13T05:06:32.744Z,92.79
2023-02-13T05:08:54.208Z,92.73
2023-02-13T05:11:15.669Z,92.63
2023-02-13T05:13:37.147Z,92.14
2023-02-13T05:15:58.681Z,92.42
2023-02-13T05:18:20.328Z,93.01
2023-02-13T05:20:41.970Z,92.75
2023-02-13T05:23:22.016Z,92.92
2023-02-13T05:25:43.490Z,93.04
2023-02-13T05:28:05.634Z,93.13
2023-02-13T05:30:27.273Z,93.08
2023-02-13T05:32:50.845Z,92.72
2023-02-13T05:35:12.299Z,92.77
2023-02-13T05:37:33.775Z,92.43
2023-02-13T05:39:55.191Z,92.76
2023-02-13T05:42:16.664Z,93.99
2023-02-13T05:44:38.164Z,95.00
2023-02-13T05:46:59.778Z,94.14
2023-02-13T05:49:21.239Z,94.48
2023-02-13T05:51:43.492Z,94.42
2023-02-13T05:54:05.060Z,93.58
2023-02-13T05:56:26.663Z,93.31
2023-02-13T05:58:51.096Z,93.27
2023-02-13T06:01:12.695Z,93.12
2023-02-13T06:03:34.313Z,92.52
2023-02-13T06:05:56.193Z,92.53
2023-02-13T06:08:17.720Z,92.64
2023-02-13T06:10:39.146Z,93.76
2023-02-13T06:13:00.761Z,93.71
2023-02-13T06:15:22.178Z,93.54
2023-02-13T06:17:43.644Z,93.66
2023-02-13T06:20:06.711Z,93.32
2023-02-13T06:22:28.150Z,93.23
2023-02-13T06:24:49.636Z,93.17
2023-02-13T06:27:11.101Z,93.14
2023-02-13T06:29:33.006Z,92.86
2023-02-13T06:31:54.491Z,92.88
2023-02-13T06:34:15.958Z,94.18
2023-02-13T06:36:38.451Z,93.99
2023-02-13T06:39:00.131Z,93.44
2023-02-13T06:41:21.570Z,94.36
2023-02-13T06:43:43.197Z,94.03
2023-02-13T06:46:06.114Z,93.42
2023-02-13T06:48:27.570Z,93.77
2023-02-13T06:50:49.046Z,93.81
2023-02-13T06:53:10.670Z,93.88
2023-02-13T06:55:32.169Z,93.68
2023-02-13T06:57:53.649Z,94.38
2023-02-13T07:00:16.673Z,94.24
2023-02-13T07:02:38.164Z,93.79
2023-02-13T07:04:59.639Z,93.60
2023-02-13T07:07:21.076Z,93.07
2023-02-13T07:09:42.578Z,93.06
2023-02-13T07:12:04.852Z,93.10
2023-02-13T07:14:26.316Z,93.25
2023-02-13T07:16:47.800Z,92.76
2023-02-13T07:19:09.299Z,92.74
2023-02-13T07:21:30.771Z,92.66
2023-02-13T07:23:52.772Z,92.35
2023-02-13T07:26:14.229Z,93.27
2023-02-13T07:28:35.750Z,93.92
2023-02-13T07:30:57.877Z,93.19
2023-02-13T07:33:19.630Z,93.41
2023-02-13T07:35:46.851Z,93.26
2023-02-13T07:38:10.928Z,93.63
2023-02-13T07:40:32.430Z,93.63
2023-02-13T07:42:53.858Z,93.19
2023-02-13T07:45:16.140Z,92.91
2023-02-13T07:47:37.707Z,92.57
2023-02-13T07:49:59.161Z,92.02
2023-02-13T07:52:20.633Z,91.74
2023-02-13T07:54:47.515Z,91.74
2023-02-13T07:57:09.277Z,91.81
2023-02-13T07:59:30.735Z,92.13
2023-02-13T08:01:52.194Z,91.57
2023-02-13T08:04:13.685Z,91.01
2023-02-13T08:06:35.149Z,90.91
2023-02-13T08:09:15.049Z,91.30
2023-02-13T08:11:54.921Z,90.13
2023-02-13T08:14:16.390Z,91.01
2023-02-13T08:16:37.869Z,91.05
2023-02-13T08:18:59.346Z,91.12
2023-02-13T08:21:20.797Z,88.53
2023-02-13T08:23:42.303Z,87.75
2023-02-13T08:26:03.968Z,88.59
2023-02-13T08:28:25.479Z,87.38
2023-02-13T08:30:46.999Z,87.02
2023-02-13T08:33:08.527Z,86.02
2023-02-13T08:35:31.647Z,85.87
2023-02-13T08:37:54.093Z,84.02
2023-02-13T08:40:15.680Z,83.03
2023-02-13T08:42:37.854Z,82.32
2023-02-13T08:44:59.725Z,82.13
2023-02-13T08:47:21.167Z,81.64
2023-02-13T08:49:43.089Z,82.49
2023-02-13T08:52:05.739Z,82.10
2023-02-13T08:54:30.642Z,79.92
2023-02-13T08:56:52.106Z,80.82
2023-02-13T08:59:13.590Z,81.29
2023-02-13T09:01:35.011Z,80.83
2023-02-13T09:03:56.512Z,79.65
2023-02-13T09:06:18.089Z,78.71
2023-02-13T09:08:39.532Z,78.96
2023-02-13T09:11:03.399Z,79.13
2023-02-13T09:13:25.203Z,78.45
2023-02-13T09:15:46.650Z,78.25
2023-02-13T09:18:08.436Z,78.58
2023-02-13T09:20:29.884Z,79.09
2023-02-13T09:22:51.630Z,79.52
2023-02-13T09:25:13.091Z,78.55
2023-02-13T09:27:35.788Z,78.08
2023-02-13T09:29:57.243Z,77.24
2023-02-13T09:32:19.432Z,78.90
2023-02-13T09:34:40.883Z,78.58
2023-02-13T09:37:02.315Z,77.91
2023-02-13T09:39:23.936Z,78.14
2023-02-13T09:41:49.355Z,77.82
2023-02-13T09:44:35.239Z,76.73
2023-02-13T09:46:57.397Z,75.65
2023-02-13T09:49:30.515Z,74.89
2023-02-13T09:51:56.485Z,74.49
2023-02-13T09:54:20.626Z,74.98
2023-02-13T09:56:54.976Z,75.01
2023-02-13T09:59:35.410Z,74.71
2023-02-13T10:02:01.345Z,74.16
2023-02-13T10:04:34.898Z,74.00
2023-02-13T10:07:13.125Z,72.60
2023-02-13T10:09:52.258Z,73.39
2023-02-13T10:12:43.368Z,71.73
2023-02-13T10:15:42.211Z,71.93
2023-02-13T10:18:11.102Z,73.41
2023-02-13T10:20:39.645Z,72.90
2023-02-13T10:23:21.328Z,73.39
2023-02-13T10:25:52.025Z,74.54
2023-02-13T10:28:23.538Z,74.28
2023-02-13T10:30:58.752Z,74.44
2023-02-13T10:33:32.053Z,73.21
2023-02-13T10:36:12.586Z,73.87
2023-02-13T10:38:39.986Z,73.24
2023-02-13T10:41:25.243Z,73.39
2023-02-13T10:44:06.641Z,71.66
2023-02-13T10:46:44.019Z,71.02
2023-02-13T10:49:27.836Z,72.08
2023-02-13T10:52:00.639Z,73.77
2023-02-13T10:55:00.434Z,75.08
2023-02-13T10:57:38.861Z,76.32
2023-02-13T11:00:05.980Z,78.35
2023-02-13T11:02:30.559Z,78.75
2023-02-13T11:05:01.303Z,78.96
2023-02-13T11:07:25.072Z,79.36
2023-02-13T11:09:49.446Z,79.41
2023-02-13T11:12:32.153Z,79.47
2023-02-13T11:14:56.634Z,78.36
2023-02-13T11:17:19.201Z,78.10
2023-02-13T11:19:53.914Z,81.14
2023-02-13T11:22:28.282Z,79.25
2023-02-13T11:24:54.641Z,78.43
2023-02-13T11:27:16.330Z,77.93
2023-02-13T11:29:51.085Z,76.50
2023-02-13T11:32:15.483Z,75.99
2023-02-13T11:34:37.009Z,75.06
2023-02-13T11:37:13.430Z,74.43
2023-02-13T11:39:34.872Z,73.20
2023-02-13T11:41:56.381Z,72.89
2023-02-13T11:44:38.127Z,73.38
2023-02-13T11:47:02.239Z,73.52
2023-02-13T11:49:26.618Z,72.27
2023-02-13T11:51:54.123Z,73.37
2023-02-13T11:54:33.737Z,71.32
2023-02-13T11:57:04.669Z,70.13
2023-02-13T11:59:32.383Z,69.12
2023-02-13T12:02:12.282Z,67.76
2023-02-13T12:04:33.700Z,69.16
2023-02-13T12:06:59.828Z,68.62
2023-02-13T12:09:21.279Z,70.10
2023-02-13T12:11:49.611Z,70.66
2023-02-13T12:14:16.584Z,71.50
2023-02-13T12:17:09.579Z,69.63
2023-02-13T12:19:42.310Z,70.76
2023-02-13T12:22:28.658Z,72.06
2023-02-13T12:25:26.480Z,71.94
2023-02-13T12:28:11.706Z,71.65
2023-02-13T12:30:59.523Z,73.36
2023-02-13T12:33:43.754Z,72.61
2023-02-13T12:36:30.038Z,73.00
2023-02-13T12:38:57.518Z,71.65
2023-02-13T12:41:22.784Z,71.73
2023-02-13T12:43:56.362Z,70.43
2023-02-13T12:46:26.598Z,72.29
2023-02-13T12:48:54.080Z,72.40
2023-02-13T12:51:21.329Z,72.16
2023-02-13T12:53:58.272Z,71.94
2023-02-13T12:56:22.467Z,71.21
2023-02-13T12:58:52.807Z,72.28
2023-02-13T13:01:32.964Z,73.71
2023-02-13T13:04:22.595Z,75.35
2023-02-13T13:06:57.002Z,78.60
2023-02-13T13:09:37.242Z,76.76
2023-02-13T13:12:10.620Z,79.35
2023-02-13T13:14:41.267Z,78.25
2023-02-13T13:17:40.879Z,78.16
2023-02-13T13:20:14.389Z,77.72
2023-02-13T13:22:53.577Z,76.25
2023-02-13T13:25:38.312Z,75.11
2023-02-13T13:28:07.860Z,76.88
2023-02-13T13:30:35.528Z,74.82
2023-02-13T13:33:08.487Z,75.28
2023-02-13T13:35:31.348Z,75.08
2023-02-13T13:38:06.627Z,74.16
2023-02-13T13:40:39.901Z,72.95
2023-02-13T13:43:20.444Z,73.39
2023-02-13T13:46:11.469Z,74.39
2023-02-13T13:49:26.269Z,74.05
2023-02-13T13:51:47.742Z,75.01
2023-02-13T13:54:09.119Z,74.34
2023-02-13T13:57:02.153Z,76.14
2023-02-13T13:59:51.522Z,76.60
2023-02-13T14:02:19.333Z,75.95
2023-02-13T14:04:43.541Z,76.37
2023-02-13T14:07:04.968Z,74.68
2023-02-13T14:09:26.321Z,75.94
2023-02-13T14:11:47.815Z,74.53
2023-02-13T14:14:27.607Z,74.28
2023-02-13T14:16:49.317Z,75.08
2023-02-13T14:19:31.147Z,75.58
2023-02-13T14:21:54.674Z,74.98
2023-02-13T14:24:19.598Z,73.83
2023-02-13T14:26:41.498Z,72.60
2023-02-13T14:29:23.281Z,73.44
2023-02-13T14:31:59.597Z,71.44
2023-02-13T14:34:30.662Z,71.59
2023-02-13T14:37:31.210Z,70.79
2023-02-13T14:40:13.181Z,70.67
2023-02-13T14:42:36.031Z,70.91
2023-02-13T14:44:59.943Z,71.04
2023-02-13T14:47:36.032Z,71.16
2023-02-13T14:50:01.583Z,72.80
2023-02-13T14:52:28.954Z,74.22
2023-02-13T14:54:54.151Z,74.85
2023-02-13T14:57:24.806Z,75.19
2023-02-13T14:59:53.140Z,76.82
2023-02-13T15:02:26.516Z,74.90
2023-02-13T15:04:55.345Z,74.74
2023-02-13T15:07:23.392Z,74.47
2023-02-13T15:09:51.783Z,75.50
2023-02-13T15:12:27.913Z,74.09
2023-02-13T15:14:49.336Z,75.67
2023-02-13T15:17:19.080Z,75.97
2023-02-13T15:19:45.557Z,77.84
2023-02-13T15:22:07.414Z,79.12
2023-02-13T15:24:38.212Z,81.69
2023-02-13T15:27:02.819Z,83.07
2023-02-13T15:29:35.304Z,83.32
2023-02-13T15:31:59.740Z,84.28
2023-02-13T15:34:28.922Z,84.72
2023-02-13T15:36:51.023Z,85.67
2023-02-13T15:39:18.645Z,85.57
2023-02-13T15:41:52.482Z,86.71
2023-02-13T15:44:20.680Z,86.26
2023-02-13T15:46:42.327Z,86.49
2023-02-13T15:49:16.706Z,86.53
2023-02-13T15:51:38.492Z,85.33
2023-02-13T15:54:06.325Z,84.77
2023-02-13T15:56:29.126Z,85.49
2023-02-13T15:58:52.541Z,84.98
2023-02-13T16:01:14.638Z,84.84
2023-02-13T16:03:36.913Z,85.25
2023-02-13T16:05:58.784Z,85.59
2023-02-13T16:08:32.265Z,85.99
2023-02-13T16:11:16.302Z,85.55
2023-02-13T16:13:37.909Z,85.01
2023-02-13T16:16:02.197Z,84.30
2023-02-13T16:18:23.763Z,84.14
2023-02-13T16:20:45.587Z,82.68
2023-02-13T16:23:16.262Z,82.12
2023-02-13T16:25:40.277Z,81.64
2023-02-13T16:28:18.403Z,81.58
2023-02-13T16:30:43.206Z,81.33
2023-02-13T16:33:16.717Z,81.39
2023-02-13T16:35:40.808Z,81.72
2023-02-13T16:38:03.112Z,82.32
2023-02-13T16:40:27.561Z,82.08
2023-02-13T16:42:49.005Z,81.15
2023-02-13T16:45:24.136Z,81.54
2023-02-13T16:47:45.712Z,81.26
2023-02-13T16:50:15.166Z,81.00
2023-02-13T16:52:36.642Z,80.77
2023-02-13T16:55:06.321Z,80.07
2023-02-13T16:57:30.807Z,78.73
2023-02-13T17:00:24.452Z,79.59
2023-02-13T17:02:48.445Z,79.53
2023-02-13T17:05:09.937Z,79.68
2023-02-13T17:07:34.518Z,79.43
2023-02-13T17:10:05.016Z,79.59
2023-02-13T17:12:28.315Z,80.01
2023-02-13T17:14:49.804Z,80.42
2023-02-13T17:17:16.709Z,80.85
2023-02-13T17:19:38.184Z,80.77
2023-02-13T17:21:59.630Z,81.11
2023-02-13T17:24:21.148Z,80.63
2023-02-13T17:26:42.605Z,80.19
2023-02-13T17:29:04.049Z,80.36
2023-02-13T17:31:25.594Z,79.92
2023-02-13T17:33:47.177Z,79.26
2023-02-13T17:36:12.585Z,79.55
2023-02-13T17:38:34.000Z,78.61
2023-02-13T17:40:55.626Z,78.52
2023-02-13T17:43:18.701Z,78.41
2023-02-13T17:45:40.761Z,78.76
2023-02-13T17:48:02.218Z,78.32
2023-02-13T17:50:25.229Z,77.55
2023-02-13T17:52:49.068Z,78.06
2023-02-13T17:55:21.223Z,77.84
2023-02-13T17:57:42.930Z,77.77
2023-02-13T18:00:05.026Z,77.52
2023-02-13T18:02:27.814Z,76.98
2023-02-13T18:04:50.052Z,77.24
2023-02-13T18:07:13.465Z,77.11
2023-02-13T18:09:34.953Z,77.10
2023-02-13T18:12:05.028Z,77.27
2023-02-13T18:14:30.077Z,77.35
2023-02-13T18:16:51.489Z,77.61
2023-02-13T18:19:13.997Z,76.93
2023-02-13T18:21:35.450Z,77.55
2023-02-13T18:23:57.033Z,77.76
2023-02-13T18:26:18.506Z,77.17
2023-02-13T18:28:39.925Z,77.50
2023-02-13T18:31:02.054Z,77.74
2023-02-13T18:33:23.731Z,77.71
2023-02-13T18:35:45.150Z,78.13
2023-02-13T18:38:06.577Z,77.39
2023-02-13T18:40:28.117Z,77.15
2023-02-13T18:42:51.062Z,77.58
2023-02-13T18:45:12.722Z,77.67
2023-02-13T18:47:34.132Z,77.35
2023-02-13T18:49:55.646Z,77.58
2023-02-13T18:52:17.081Z,77.59
2023-02-13T18:54:38.754Z,76.95
2023-02-13T18:57:00.203Z,77.12
2023-02-13T18:59:23.054Z,77.53
2023-02-13T19:01:44.987Z,76.60
2023-02-13T19:04:06.791Z,76.73
2023-02-13T19:06:28.379Z,77.36
2023-02-13T19:08:50.212Z,77.22
2023-02-13T19:11:17.525Z,76.84
2023-02-13T19:13:38.954Z,77.27
2023-02-13T19:16:11.733Z,76.89
2023-02-13T19:18:36.790Z,77.26
2023-02-13T19:21:03.063Z,77.00
2023-02-13T19:23:24.485Z,77.43
2023-02-13T19:25:45.926Z,78.04
2023-02-13T19:28:07.340Z,78.09
2023-02-13T19:30:28.873Z,78.36
2023-02-13T19:32:50.295Z,77.96
2023-02-13T19:35:11.716Z,79.16
2023-02-13T19:37:43.051Z,79.01
2023-02-13T19:40:05.901Z,78.73
2023-02-13T19:42:27.360Z,78.45
2023-02-13T19:44:48.844Z,79.05
2023-02-13T19:47:10.372Z,79.12
2023-02-13T19:49:31.799Z,79.04
2023-02-13T19:51:53.243Z,79.04
2023-02-13T19:54:14.757Z,78.95
2023-02-13T19:56:38.726Z,78.64
2023-02-13T19:59:00.154Z,79.47
2023-02-13T20:01:24.017Z,79.28
2023-02-13T20:03:45.540Z,79.26
2023-02-13T20:06:12.808Z,79.52
2023-02-13T20:08:34.704Z,79.45
2023-02-13T20:10:56.400Z,79.75
2023-02-13T20:13:18.204Z,79.89
2023-02-13T20:15:40.967Z,79.49
2023-02-13T20:18:02.448Z,79.48
2023-02-13T20:20:23.869Z,78.49
2023-02-13T20:22:47.766Z,78.91
2023-02-13T20:25:09.206Z,79.30
2023-02-13T20:27:30.657Z,80.36
2023-02-13T20:29:58.895Z,79.89
2023-02-13T20:32:28.067Z,80.09
2023-02-13T20:34:59.423Z,80.06
2023-02-13T20:37:21.387Z,82.04
2023-02-13T20:39:43.972Z,81.80
2023-02-13T20:42:05.561Z,81.89
2023-02-13T20:44:28.169Z,82.10
2023-02-13T20:46:51.004Z,83.18
2023-02-13T20:49:18.723Z,82.33
2023-02-13T20:51:40.192Z,81.98
2023-02-13T20:54:02.269Z,81.68
2023-02-13T20:56:25.929Z,81.45
2023-02-13T20:58:49.182Z,82.06
2023-02-13T21:01:13.513Z,82.04
2023-02-13T21:03:35.000Z,81.84
2023-02-13T21:05:56.458Z,81.75
2023-02-13T21:08:18.313Z,82.28
2023-02-13T21:10:39.737Z,82.01
2023-02-13T21:13:01.155Z,82.34
2023-02-13T21:15:22.595Z,82.50
2023-02-13T21:17:44.277Z,82.30
2023-02-13T21:20:06.418Z,82.14
2023-02-13T21:22:27.865Z,81.93
2023-02-13T21:24:49.770Z,81.51
2023-02-13T21:27:11.350Z,81.75
2023-02-13T21:29:33.096Z,82.42
2023-02-13T21:31:54.583Z,81.65
2023-02-13T21:34:17.322Z,82.06
2023-02-13T21:36:39.450Z,82.88
2023-02-13T21:39:01.163Z,83.04
2023-02-13T21:41:22.862Z,82.37
2023-02-13T21:43:47.991Z,82.69
2023-02-13T21:46:11.831Z,82.81
2023-02-13T21:48:33.523Z,82.72
2023-02-13T21:50:54.958Z,82.91
2023-02-13T21:53:16.393Z,83.22
2023-02-13T21:55:37.814Z,82.94
2023-02-13T21:57:59.227Z,84.24
2023-02-13T22:00:20.844Z,84.14
2023-02-13T22:02:42.350Z,83.58
2023-02-13T22:05:04.165Z,83.71
2023-02-13T22:07:25.607Z,83.59
2023-02-13T22:09:49.970Z,83.65
2023-02-13T22:12:11.467Z,84.35
2023-02-13T22:14:32.925Z,87.04
2023-02-13T22:16:54.417Z,87.91
2023-02-13T22:19:16.190Z,87.35
2023-02-13T22:21:37.635Z,88.28
2023-02-13T22:23:59.207Z,87.89
2023-02-13T22:26:24.186Z,86.84
2023-02-13T22:28:46.007Z,86.27
2023-02-13T22:31:09.007Z,86.08
2023-02-13T22:33:30.587Z,87.53
2023-02-13T22:35:52.332Z,86.52
2023-02-13T22:38:13.865Z,86.35
2023-02-13T22:40:36.080Z,88.22
2023-02-13T22:42:57.535Z,88.13
2023-02-13T22:45:18.961Z,88.62
2023-02-13T22:47:40.449Z,88.65
2023-02-13T22:50:01.864Z,88.16
2023-02-13T22:52:23.327Z,88.94
2023-02-13T22:54:44.722Z,88.60
2023-02-13T22:57:06.485Z,88.36
2023-02-13T22:59:28.356Z,88.06
2023-02-13T23:01:49.890Z,89.18
2023-02-13T23:04:12.581Z,88.78
2023-02-13T23:06:34.084Z,88.15
2023-02-13T23:08:56.017Z,87.62
2023-02-13T23:11:36.727Z,87.19
2023-02-13T23:13:58.221Z,86.88
2023-02-13T23:16:20.014Z,86.80
2023-02-13T23:18:41.504Z,88.11
2023-02-13T23:21:07.731Z,91.59
2023-02-13T23:23:29.297Z,91.48
2023-02-13T23:25:50.742Z,91.81
2023-02-13T23:28:12.198Z,91.64
2023-02-13T23:30:34.616Z,90.48
2023-02-13T23:32:57.445Z,89.51
2023-02-13T23:35:19.012Z,89.12
2023-02-13T23:37:40.534Z,90.44
2023-02-13T23:40:02.196Z,90.01
2023-02-13T23:42:23.705Z,89.94
2023-02-13T23:44:45.187Z,89.90
2023-02-13T23:47:06.793Z,89.81
2023-02-13T23:49:28.257Z,90.43
2023-02-13T23:51:49.810Z,89.97
2023-02-13T23:54:20.481Z,89.36
2023-02-13T23:56:42.269Z,90.62
2023-02-13T23:59:03.859Z,91.60
